createdAt,value
2023-02-02T00:01:56.657Z,3.58
2023-02-02T00:04:27.767Z,3.25
2023-02-02T00:06:57.235Z,3.28
2023-02-02T00:09:28.993Z,3.22
2023-02-02T00:11:56.898Z,3.55
2023-02-02T00:14:25.289Z,3.63
2023-02-02T00:16:57.420Z,3.40
2023-02-02T00:19:30.429Z,3.35
2023-02-02T00:21:58.373Z,3.00
2023-02-02T00:24:25.436Z,3.50
2023-02-02T00:26:57.287Z,3.75
2023-02-02T00:29:29.366Z,3.60
2023-02-02T00:31:57.045Z,3.30
2023-02-02T00:34:24.915Z,3.10
2023-02-02T00:36:52.599Z,3.47
2023-02-02T00:39:29.619Z,3.83
2023-02-02T00:41:56.634Z,3.38
2023-02-02T00:44:42.571Z,3.63
2023-02-02T00:47:09.606Z,3.30
2023-02-02T00:49:36.856Z,3.20
2023-02-02T00:52:04.138Z,3.83
2023-02-02T00:54:31.156Z,3.38
2023-02-02T00:56:58.169Z,3.08
2023-02-02T00:59:25.201Z,2.88
2023-02-02T01:01:52.474Z,2.65
2023-02-02T01:04:19.442Z,4.03
2023-02-02T01:06:46.971Z,2.50
2023-02-02T01:09:14.362Z,2.60
2023-02-02T01:11:41.735Z,2.20
2023-02-02T01:14:08.749Z,2.60
2023-02-02T01:16:35.768Z,3.35
2023-02-02T01:19:03.114Z,3.08
2023-02-02T01:21:31.011Z,3.15
2023-02-02T01:24:00.432Z,4.20
2023-02-02T01:26:27.457Z,3.88
2023-02-02T01:28:54.450Z,3.42
2023-02-02T01:31:21.713Z,4.05
2023-02-02T01:33:50.453Z,4.22
2023-02-02T01:36:22.603Z,3.92
2023-02-02T01:38:50.652Z,3.55
2023-02-02T01:41:23.239Z,3.58
2023-02-02T01:44:01.336Z,3.58
2023-02-02T01:46:37.136Z,3.83
2023-02-02T01:49:17.898Z,4.30
2023-02-02T01:51:52.541Z,4.18
2023-02-02T01:54:30.809Z,4.10
2023-02-02T01:57:06.779Z,3.58
2023-02-02T01:59:35.751Z,3.60
2023-02-02T02:02:03.692Z,3.90
2023-02-02T02:04:32.584Z,4.28
2023-02-02T02:07:03.221Z,3.65
2023-02-02T02:09:31.764Z,3.65
2023-02-02T02:11:58.924Z,3.80
2023-02-02T02:14:46.664Z,3.53
2023-02-02T02:17:37.215Z,3.17
2023-02-02T02:20:55.620Z,3.22
2023-02-02T02:24:22.853Z,3.20
2023-02-02T02:27:24.336Z,3.30
2023-02-02T02:30:42.108Z,3.92
2023-02-02T02:33:35.847Z,3.17
2023-02-02T02:36:35.932Z,3.38
2023-02-02T02:39:21.709Z,3.42
2023-02-02T02:42:00.278Z,3.60
2023-02-02T02:44:31.276Z,3.33
2023-02-02T02:46:58.495Z,3.58
2023-02-02T02:49:26.076Z,3.20
2023-02-02T02:51:55.670Z,3.50
2023-02-02T02:54:35.852Z,3.75
2023-02-02T02:57:45.830Z,3.60
2023-02-02T03:00:36.038Z,4.22
2023-02-02T03:03:26.614Z,3.10
2023-02-02T03:06:41.497Z,3.50
2023-02-02T03:09:19.916Z,3.27
2023-02-02T03:11:46.955Z,3.38
2023-02-02T03:14:14.456Z,3.63
2023-02-02T03:16:41.491Z,3.72
2023-02-02T03:19:09.258Z,3.30
2023-02-02T03:21:36.260Z,3.10
2023-02-02T03:24:03.246Z,3.10
2023-02-02T03:26:30.529Z,3.05
2023-02-02T03:28:57.656Z,3.42
2023-02-02T03:31:28.675Z,3.20
2023-02-02T03:33:56.759Z,3.03
2023-02-02T03:36:23.660Z,3.25
2023-02-02T03:38:50.608Z,3.42
2023-02-02T03:41:17.573Z,3.83
2023-02-02T03:43:44.679Z,3.28
2023-02-02T03:46:11.826Z,3.08
2023-02-02T03:48:39.319Z,3.42
2023-02-02T03:51:09.466Z,3.80
2023-02-02T03:53:36.500Z,3.85
2023-02-02T03:56:04.136Z,3.83
2023-02-02T03:58:31.108Z,3.28
2023-02-02T04:01:07.799Z,3.67
2023-02-02T04:03:34.777Z,3.65
2023-02-02T04:06:01.837Z,4.20
2023-02-02T04:08:29.132Z,3.30
2023-02-02T04:10:56.655Z,3.25
2023-02-02T04:13:23.607Z,3.47
2023-02-02T04:16:00.979Z,3.92
2023-02-02T04:18:29.397Z,3.67
2023-02-02T04:21:01.651Z,3.08
2023-02-02T04:23:30.120Z,4.13
2023-02-02T04:26:00.422Z,3.22
2023-02-02T04:28:28.756Z,3.38
2023-02-02T04:30:56.601Z,3.85
2023-02-02T04:33:25.755Z,3.47
2023-02-02T04:35:52.944Z,3.30
2023-02-02T04:38:20.399Z,3.45
2023-02-02T04:40:48.367Z,3.45
2023-02-02T04:43:15.440Z,3.50
2023-02-02T04:45:42.619Z,3.20
2023-02-02T04:48:11.756Z,4.03
2023-02-02T04:50:39.399Z,3.40
2023-02-02T04:53:06.407Z,3.33
2023-02-02T04:55:38.017Z,3.58
2023-02-02T04:58:06.356Z,4.18
2023-02-02T05:00:36.308Z,3.40
2023-02-02T05:03:03.287Z,4.55
2023-02-02T05:05:30.258Z,3.45
2023-02-02T05:07:57.245Z,4.40
2023-02-02T05:10:24.226Z,3.08
2023-02-02T05:12:54.812Z,3.95
2023-02-02T05:15:23.253Z,3.70
2023-02-02T05:17:50.465Z,4.00
2023-02-02T05:20:18.137Z,3.90
2023-02-02T05:22:49.865Z,3.15
2023-02-02T05:25:17.519Z,2.95
2023-02-02T05:27:45.767Z,2.78
2023-02-02T05:30:14.526Z,3.20
2023-02-02T05:32:41.784Z,3.78
2023-02-02T05:35:10.167Z,3.28
2023-02-02T05:37:37.157Z,2.65
2023-02-02T05:40:05.168Z,3.50
2023-02-02T05:42:32.163Z,3.20
2023-02-02T05:44:59.160Z,3.63
2023-02-02T05:47:26.144Z,2.97
2023-02-02T05:49:53.136Z,2.95
2023-02-02T05:52:23.538Z,3.25
2023-02-02T05:54:50.485Z,2.92
2023-02-02T05:57:17.489Z,2.80
2023-02-02T05:59:44.512Z,2.63
2023-02-02T06:02:11.500Z,2.92
2023-02-02T06:04:38.436Z,2.85
2023-02-02T06:07:05.417Z,3.67
2023-02-02T06:09:32.427Z,2.95
2023-02-02T06:11:59.417Z,3.17
2023-02-02T06:14:26.551Z,3.13
2023-02-02T06:16:53.556Z,3.17
2023-02-02T06:19:20.571Z,3.15
2023-02-02T06:21:47.616Z,2.88
2023-02-02T06:24:14.759Z,2.92
2023-02-02T06:26:41.832Z,3.55
2023-02-02T06:29:13.413Z,3.35
2023-02-02T06:31:40.613Z,3.30
2023-02-02T06:34:08.606Z,2.78
2023-02-02T06:36:36.482Z,3.63
2023-02-02T06:39:04.871Z,3.50
2023-02-02T06:41:31.824Z,3.33
2023-02-02T06:43:58.777Z,3.22
2023-02-02T06:46:25.955Z,3.20
2023-02-02T06:48:53.044Z,2.63
2023-02-02T06:51:20.594Z,3.20
2023-02-02T06:53:51.835Z,3.30
2023-02-02T06:56:18.885Z,3.10
2023-02-02T06:58:45.895Z,3.03
2023-02-02T07:01:14.528Z,3.25
2023-02-02T07:03:41.568Z,3.40
2023-02-02T07:06:24.991Z,3.60
2023-02-02T07:09:02.264Z,3.58
2023-02-02T07:11:40.326Z,3.40
2023-02-02T07:14:09.540Z,3.08
2023-02-02T07:16:36.619Z,3.42
2023-02-02T07:19:03.783Z,3.38
2023-02-02T07:21:35.830Z,3.20
2023-02-02T07:24:05.477Z,3.15
2023-02-02T07:26:36.110Z,2.78
2023-02-02T07:29:04.534Z,3.55
2023-02-02T07:31:33.547Z,2.92
2023-02-02T07:34:02.702Z,3.20
2023-02-02T07:36:29.637Z,2.97
2023-02-02T07:38:57.734Z,3.33
2023-02-02T07:41:25.351Z,3.35
2023-02-02T07:43:52.434Z,3.47
2023-02-02T07:46:20.858Z,3.03
2023-02-02T07:48:48.405Z,4.22
2023-02-02T07:51:18.115Z,3.78
2023-02-02T07:53:49.182Z,3.78
2023-02-02T07:56:20.631Z,3.25
2023-02-02T07:58:48.014Z,3.33
2023-02-02T08:01:16.724Z,3.75
2023-02-02T08:03:44.346Z,3.20
2023-02-02T08:06:19.894Z,3.15
2023-02-02T08:08:48.227Z,3.75
2023-02-02T08:11:20.287Z,3.33
2023-02-02T08:13:53.961Z,3.53
2023-02-02T08:16:22.628Z,3.63
2023-02-02T08:18:50.489Z,3.10
2023-02-02T08:21:19.428Z,3.20
2023-02-02T08:23:47.802Z,3.25
2023-02-02T08:26:25.251Z,3.38
2023-02-02T08:29:12.364Z,3.00
2023-02-02T08:31:42.222Z,4.18
2023-02-02T08:34:10.846Z,4.00
2023-02-02T08:36:38.281Z,3.28
2023-02-02T08:39:12.748Z,3.47
2023-02-02T08:44:14.052Z,3.85
2023-02-02T08:46:42.625Z,3.08
2023-02-02T08:49:12.345Z,3.22
2023-02-02T08:51:39.713Z,4.45
2023-02-02T08:54:06.782Z,3.70
2023-02-02T08:56:33.811Z,3.63
2023-02-02T08:59:03.129Z,2.53
2023-02-02T09:01:33.147Z,3.53
2023-02-02T09:04:07.821Z,2.92
2023-02-02T09:06:40.708Z,3.13
2023-02-02T09:09:14.399Z,3.60
2023-02-02T09:11:43.214Z,2.95
2023-02-02T09:14:13.219Z,3.45
2023-02-02T09:16:40.851Z,3.22
2023-02-02T09:19:08.408Z,2.90
2023-02-02T09:21:37.136Z,2.88
2023-02-02T09:24:13.816Z,4.82
2023-02-02T09:26:41.433Z,3.45
2023-02-02T09:29:13.446Z,2.70
2023-02-02T09:31:40.549Z,3.08
2023-02-02T09:34:11.907Z,3.17
2023-02-02T09:36:40.607Z,2.85
2023-02-02T09:39:08.589Z,3.63
2023-02-02T09:41:38.581Z,3.03
2023-02-02T09:44:51.377Z,3.88
2023-02-02T09:47:28.524Z,3.17
2023-02-02T09:50:39.250Z,3.13
2023-02-02T09:53:22.524Z,2.10
2023-02-02T09:56:00.341Z,2.47
2023-02-02T09:58:45.635Z,3.05
2023-02-02T10:01:22.896Z,2.70
2023-02-02T10:04:20.190Z,4.22
2023-02-02T10:06:54.530Z,3.35
2023-02-02T10:09:30.572Z,2.90
2023-02-02T10:12:07.712Z,3.03
2023-02-02T10:15:23.134Z,3.20
2023-02-02T10:18:50.255Z,2.97
2023-02-02T10:21:55.614Z,2.70
2023-02-02T10:24:28.228Z,2.67
2023-02-02T10:27:12.205Z,3.03
2023-02-02T10:29:53.482Z,2.73
2023-02-02T10:32:27.205Z,3.03
2023-02-02T10:35:14.143Z,2.13
2023-02-02T10:38:02.226Z,2.80
2023-02-02T10:40:49.490Z,2.90
2023-02-02T10:43:57.444Z,3.38
2023-02-02T10:46:39.644Z,3.13
2023-02-02T10:49:29.204Z,2.78
2023-02-02T10:52:11.601Z,2.70
2023-02-02T10:55:09.723Z,3.05
2023-02-02T10:58:13.984Z,2.92
2023-02-02T11:00:52.760Z,2.95
2023-02-02T11:03:40.222Z,3.42
2023-02-02T11:06:27.162Z,3.10
2023-02-02T11:08:59.395Z,2.78
2023-02-02T11:11:32.511Z,3.30
2023-02-02T11:14:15.164Z,2.72
2023-02-02T11:16:45.499Z,3.90
2023-02-02T11:19:19.622Z,2.78
2023-02-02T11:21:56.709Z,2.72
2023-02-02T11:24:31.309Z,3.28
2023-02-02T11:27:24.076Z,2.80
2023-02-02T11:29:59.756Z,3.42
2023-02-02T11:32:35.583Z,3.10
2023-02-02T11:35:02.444Z,3.28
2023-02-02T11:37:32.028Z,3.42
2023-02-02T11:40:28.700Z,3.03
2023-02-02T11:43:00.580Z,3.50
2023-02-02T11:45:35.444Z,3.05
2023-02-02T11:48:11.719Z,2.80
2023-02-02T11:50:38.837Z,2.80
2023-02-02T11:53:06.803Z,3.28
2023-02-02T11:55:35.260Z,2.70
2023-02-02T11:58:42.353Z,3.20
2023-02-02T12:01:41.197Z,2.90
2023-02-02T12:04:17.457Z,3.22
2023-02-02T12:06:45.195Z,2.83
2023-02-02T12:09:23.775Z,2.60
2023-02-02T12:12:43.338Z,3.30
2023-02-02T12:16:01.172Z,2.97
2023-02-02T12:19:18.021Z,3.58
2023-02-02T12:22:33.320Z,3.17
2023-02-02T12:25:15.125Z,4.35
2023-02-02T12:28:06.223Z,3.33
2023-02-02T12:31:16.883Z,3.17
2023-02-02T12:33:59.657Z,3.33
2023-02-02T12:37:07.447Z,3.20
2023-02-02T12:40:03.087Z,3.50
2023-02-02T12:42:48.282Z,3.10
2023-02-02T12:45:51.601Z,3.10
2023-02-02T12:49:00.106Z,3.17
2023-02-02T12:52:15.981Z,2.78
2023-02-02T12:57:49.487Z,2.58
2023-02-02T13:01:13.436Z,2.72
2023-02-02T13:04:07.987Z,2.60
2023-02-02T13:07:12.815Z,2.65
2023-02-02T13:10:20.373Z,2.28
2023-02-02T13:13:20.334Z,3.05
2023-02-02T13:16:00.516Z,3.33
2023-02-02T13:18:41.166Z,2.85
2023-02-02T13:21:22.677Z,3.15
2023-02-02T13:23:55.847Z,2.55
2023-02-02T13:26:37.777Z,2.90
2023-02-02T13:29:24.834Z,2.60
2023-02-02T13:32:04.397Z,3.17
2023-02-02T13:35:02.859Z,2.33
2023-02-02T13:37:53.955Z,2.28
2023-02-02T13:40:23.998Z,2.72
2023-02-02T13:43:33.105Z,2.63
2023-02-02T13:46:31.094Z,2.60
2023-02-02T13:49:08.351Z,2.45
2023-02-02T13:52:13.553Z,2.35
2023-02-02T13:55:25.420Z,2.80
2023-02-02T13:58:26.239Z,2.10
2023-02-02T14:01:02.719Z,2.30
2023-02-02T14:03:50.359Z,2.10
2023-02-02T14:06:23.464Z,2.45
2023-02-02T14:09:04.770Z,3.30
2023-02-02T14:11:36.984Z,2.72
2023-02-02T14:14:32.425Z,2.28
2023-02-02T14:17:06.650Z,2.25
2023-02-02T14:19:33.528Z,3.33
2023-02-02T14:22:05.112Z,2.38
2023-02-02T14:24:34.752Z,1.98
2023-02-02T14:27:25.661Z,2.45
2023-02-02T14:29:52.877Z,2.85
2023-02-02T14:32:29.004Z,2.42
2023-02-02T14:35:08.192Z,2.50
2023-02-02T14:38:09.201Z,3.78
2023-02-02T14:40:51.532Z,2.78
2023-02-02T14:43:49.676Z,3.20
2023-02-02T14:46:47.990Z,4.22
2023-02-02T14:49:20.106Z,3.28
2023-02-02T14:51:53.525Z,4.05
2023-02-02T14:54:37.047Z,3.63
2023-02-02T14:57:28.693Z,3.70
2023-02-02T15:00:00.037Z,3.45
2023-02-02T15:02:37.886Z,3.92
2023-02-02T15:05:38.863Z,3.47
2023-02-02T15:08:15.193Z,4.32
2023-02-02T15:10:59.884Z,3.88
2023-02-02T15:13:37.463Z,4.40
2023-02-02T15:16:23.952Z,4.15
2023-02-02T15:19:05.408Z,4.18
2023-02-02T15:21:40.548Z,4.63
2023-02-02T15:24:21.648Z,3.65
2023-02-02T15:26:50.155Z,4.70
2023-02-02T15:29:37.524Z,3.38
2023-02-02T15:32:06.786Z,3.53
2023-02-02T15:34:46.564Z,3.42
2023-02-02T15:37:24.806Z,3.28
2023-02-02T15:40:00.178Z,3.53
2023-02-02T15:42:54.251Z,4.20
2023-02-02T15:45:51.073Z,3.40
2023-02-02T15:48:30.105Z,3.30
2023-02-02T15:51:03.325Z,3.65
2023-02-02T15:53:39.225Z,3.92
2023-02-02T15:56:30.399Z,3.75
2023-02-02T15:59:00.082Z,3.60
2023-02-02T16:01:33.607Z,3.88
2023-02-02T16:04:42.556Z,4.67
2023-02-02T16:07:19.796Z,5.30
2023-02-02T16:09:47.416Z,4.70
2023-02-02T16:12:19.899Z,4.85
2023-02-02T16:14:53.521Z,4.50
2023-02-02T16:17:30.656Z,4.50
2023-02-02T16:20:18.098Z,5.10
2023-02-02T16:22:47.832Z,4.65
2023-02-02T16:25:21.275Z,4.97
2023-02-02T16:27:49.624Z,5.32
2023-02-02T16:30:31.178Z,6.10
2023-02-02T16:32:58.883Z,5.72
2023-02-02T16:35:37.284Z,5.88
2023-02-02T16:38:24.473Z,6.53
2023-02-02T16:41:12.790Z,6.40
2023-02-02T16:43:42.947Z,7.25
2023-02-02T16:46:15.122Z,7.05
2023-02-02T16:49:00.738Z,6.55
2023-02-02T16:51:32.894Z,7.32
2023-02-02T16:54:06.997Z,7.63
2023-02-02T16:56:44.664Z,7.68
2023-02-02T16:59:27.661Z,8.27
2023-02-02T17:02:04.082Z,7.55
2023-02-02T17:04:34.223Z,7.43
2023-02-02T17:07:15.910Z,7.70
2023-02-02T17:09:47.423Z,7.80
2023-02-02T17:12:35.333Z,7.82
2023-02-02T17:15:34.480Z,8.70
2023-02-02T17:18:05.098Z,7.95
2023-02-02T17:20:34.507Z,8.18
2023-02-02T17:23:09.660Z,8.45
2023-02-02T17:25:47.867Z,9.77
2023-02-02T17:28:20.490Z,9.45
2023-02-02T17:30:57.364Z,11.10
2023-02-02T17:33:24.570Z,11.10
2023-02-02T17:35:55.686Z,9.70
2023-02-02T17:38:24.970Z,9.65
2023-02-02T17:40:54.963Z,8.40
2023-02-02T17:43:22.253Z,8.75
2023-02-02T17:45:50.343Z,8.55
2023-02-02T17:48:17.651Z,7.93
2023-02-02T17:50:45.474Z,7.38
2023-02-02T17:53:21.894Z,7.30
2023-02-02T17:55:51.360Z,6.88
2023-02-02T17:58:21.088Z,6.88
2023-02-02T18:00:56.256Z,7.00
2023-02-02T18:03:31.399Z,6.75
2023-02-02T18:06:03.024Z,7.00
2023-02-02T18:08:32.340Z,6.47
2023-02-02T18:10:59.617Z,6.03
2023-02-02T18:13:28.510Z,6.03
2023-02-02T18:15:56.131Z,5.65
2023-02-02T18:18:23.725Z,6.18
2023-02-02T18:20:54.362Z,5.55
2023-02-02T18:23:27.106Z,5.80
2023-02-02T18:25:54.302Z,5.63
2023-02-02T18:28:22.311Z,6.03
2023-02-02T18:30:56.432Z,5.15
2023-02-02T18:33:25.750Z,5.50
2023-02-02T18:35:52.753Z,5.15
2023-02-02T18:38:19.749Z,5.10
2023-02-02T18:40:57.291Z,4.97
2023-02-02T18:43:24.298Z,4.57
2023-02-02T18:46:04.554Z,4.70
2023-02-02T18:48:32.050Z,4.80
2023-02-02T18:50:59.372Z,4.70
2023-02-02T18:53:26.434Z,6.80
2023-02-02T18:55:53.595Z,4.40
2023-02-02T18:58:25.501Z,4.68
2023-02-02T19:00:55.031Z,5.03
2023-02-02T19:03:25.656Z,4.88
2023-02-02T19:06:13.516Z,4.50
2023-02-02T19:08:41.682Z,5.93
2023-02-02T19:11:18.064Z,4.90
2023-02-02T19:13:45.624Z,4.47
2023-02-02T19:16:33.832Z,4.30
2023-02-02T19:19:36.071Z,4.93
2023-02-02T19:22:23.135Z,4.57
2023-02-02T19:24:51.213Z,4.22
2023-02-02T19:30:45.269Z,5.22
2023-02-02T19:33:15.909Z,4.13
2023-02-02T19:35:52.283Z,4.55
2023-02-02T19:38:21.947Z,4.20
2023-02-02T19:40:48.879Z,4.35
2023-02-02T19:43:31.752Z,4.00
2023-02-02T19:46:00.152Z,4.00
2023-02-02T19:48:35.043Z,3.90
2023-02-02T19:51:42.419Z,3.70
2023-02-02T19:54:26.536Z,4.15
2023-02-02T19:56:58.320Z,4.35
2023-02-02T19:59:33.342Z,4.05
2023-02-02T20:02:20.496Z,3.90
2023-02-02T20:04:53.362Z,3.55
2023-02-02T20:07:20.492Z,4.07
2023-02-02T20:09:47.474Z,4.30
2023-02-02T20:12:31.601Z,4.38
2023-02-02T20:14:58.639Z,4.95
2023-02-02T20:17:34.287Z,5.10
2023-02-02T20:20:01.446Z,5.30
2023-02-02T20:22:32.671Z,5.65
2023-02-02T20:25:08.107Z,5.68
2023-02-02T20:27:35.182Z,6.25
2023-02-02T20:30:25.062Z,6.20
2023-02-02T20:32:59.593Z,6.97
2023-02-02T20:35:38.284Z,6.50
2023-02-02T20:38:39.145Z,6.43
2023-02-02T20:41:06.429Z,7.03
2023-02-02T20:43:34.931Z,6.30
2023-02-02T20:46:01.900Z,7.10
2023-02-02T20:48:29.235Z,7.32
2023-02-02T20:50:56.220Z,7.68
2023-02-02T20:53:23.163Z,7.80
2023-02-02T20:55:50.169Z,7.85
2023-02-02T20:58:17.120Z,7.68
2023-02-02T21:00:44.122Z,8.38
2023-02-02T21:03:13.122Z,7.88
2023-02-02T21:05:40.110Z,8.55
2023-02-02T21:08:07.885Z,8.82
2023-02-02T21:10:34.867Z,8.10
2023-02-02T21:13:01.756Z,7.88
2023-02-02T21:15:28.814Z,7.78
2023-02-02T21:17:55.728Z,7.30
2023-02-02T21:20:22.638Z,7.55
2023-02-02T21:22:49.668Z,8.13
2023-02-02T21:25:16.792Z,8.00
2023-02-02T21:27:44.521Z,8.82
2023-02-02T21:30:13.909Z,8.35
2023-02-02T21:32:40.944Z,9.63
2023-02-02T21:35:08.377Z,9.35
2023-02-02T21:37:39.418Z,10.52
2023-02-02T21:40:19.448Z,9.50
2023-02-02T21:42:49.517Z,9.60
2023-02-02T21:45:22.591Z,9.52
2023-02-02T21:47:55.594Z,9.30
2023-02-02T21:50:36.585Z,9.68
2023-02-02T21:53:09.604Z,9.80
2023-02-02T21:55:41.763Z,9.90
2023-02-02T21:58:20.572Z,8.77
2023-02-02T22:00:49.577Z,9.77
2023-02-02T22:03:36.760Z,8.77
2023-02-02T22:06:18.711Z,8.52
2023-02-02T22:08:45.643Z,8.50
2023-02-02T22:11:25.142Z,8.30
2023-02-02T22:13:53.541Z,8.13
2023-02-02T22:16:20.876Z,8.00
2023-02-02T22:18:48.009Z,7.07
2023-02-02T22:21:20.617Z,7.30
2023-02-02T22:23:47.951Z,7.40
2023-02-02T22:26:34.051Z,6.82
2023-02-02T22:29:14.509Z,6.93
2023-02-02T22:31:41.485Z,6.80
2023-02-02T22:34:08.528Z,5.90
2023-02-02T22:36:35.461Z,6.25
2023-02-02T22:39:02.364Z,5.80
2023-02-02T22:41:29.461Z,5.75
2023-02-02T22:43:56.449Z,5.50
2023-02-02T22:46:23.552Z,5.70
2023-02-02T22:48:50.468Z,5.38
2023-02-02T22:51:17.445Z,5.32
2023-02-02T22:53:44.390Z,5.60
2023-02-02T22:56:11.331Z,5.38
2023-02-02T22:58:38.509Z,5.32
2023-02-02T23:01:05.380Z,5.63
2023-02-02T23:03:32.391Z,4.80
2023-02-02T23:05:59.286Z,4.70
2023-02-02T23:08:26.186Z,4.43
2023-02-02T23:10:53.281Z,4.57
2023-02-02T23:13:20.598Z,4.65
2023-02-02T23:15:47.525Z,4.40
2023-02-02T23:18:14.686Z,4.65
2023-02-02T23:20:41.680Z,4.25
2023-02-02T23:23:08.658Z,4.55
2023-02-02T23:25:35.610Z,4.32
2023-02-02T23:28:02.570Z,4.00
2023-02-02T23:30:29.555Z,3.85
2023-02-02T23:32:56.697Z,3.90
2023-02-02T23:35:23.628Z,4.50
2023-02-02T23:37:50.580Z,4.00
2023-02-02T23:40:17.771Z,4.60
2023-02-02T23:42:44.741Z,4.32
2023-02-02T23:45:13.135Z,4.15
2023-02-02T23:47:40.607Z,4.00
2023-02-02T23:50:09.441Z,4.13
2023-02-02T23:52:37.248Z,4.30
2023-02-02T23:55:05.595Z,4.30
2023-02-02T23:57:33.791Z,4.40
